Palm Springs North, Florida
Current Conditions -  °F | °C
As of 3:53 AM on Sunday 21 Dec 2014 (Local Time) from KOPF Reporting Station
Few Clouds Few Clouds  
Wind Chill: 62°   Ceiling: Unl
Heat Index: 62°   Visibility: 10mi
Dew Point: 61°   Wind: 0mph
Humidity: 96%   Direction: NA
Pressure: 30.05"   Gusts: NA
Location:  25.9357°N, 80.3817°W
Report Text: KOPF 210853Z AUTO 00000KT 10SM FEW027 FEW034 17/16 A3005 RMK AO2 SLP177 T01670161 56012
Loading
Personal Weather Stations






























Interactive Weather Map New forecast layout! Learn more

10-Day Weather Forecast

Advertisements
Track Severe Weather on mobile